Time;durP1;ratioP1;P1;durP2;ratioP2;P2;SDS_P1;SDS_P2;PMS_P1;PMS_P2;Temp;Humidity;BMP_temperature;BMP_pressure;BME280_temperature;BME280_humidity;BME280_pressure;Samples;Min_cycle;Max_cycle;Signal;HPM_P1;HPM_P2
2021/11/29 00:00:12;;;;;;;28.10;17.35;;;;;;;1.65;78.12;98327.52;2108049;84;33999;-61
2021/11/29 00:03:18;;;;;;;29.05;17.15;;;;;;;1.66;78.10;98331.87;2106215;84;28027;-62
2021/11/29 00:06:21;;;;;;;26.37;16.25;;;;;;;1.63;78.03;98331.55;2071493;85;27689;-61
2021/11/29 00:09:23;;;;;;;26.10;16.90;;;;;;;1.62;78.04;98342.16;2075382;85;29109;-61
2021/11/29 00:12:25;;;;;;;22.30;14.25;;;;;;;1.61;78.12;98346.59;2070624;86;32005;-61
2021/11/29 00:15:27;;;;;;;28.02;15.53;;;;;;;1.63;78.13;98354.44;2073733;85;34347;-62
2021/11/29 00:18:29;;;;;;;25.65;15.28;;;;;;;1.63;78.08;98362.35;2068532;86;30207;-61
2021/11/29 00:21:36;;;;;;;25.60;15.40;;;;;;;1.62;78.15;98362.83;2070165;86;27663;-62
2021/11/29 00:24:39;;;;;;;24.43;15.40;;;;;;;1.63;78.12;98370.27;2070455;86;29839;-62
2021/11/29 00:27:42;;;;;;;20.82;14.23;;;;;;;1.62;78.05;98368.55;2070291;86;32203;-62
2021/11/29 00:30:44;;;;;;;23.92;15.80;;;;;;;1.62;78.10;98365.91;2069651;86;33232;-63
2021/11/29 00:33:46;;;;;;;23.83;16.02;;;;;;;1.64;78.11;98367.58;2070547;86;29684;-63
2021/11/29 00:36:48;;;;;;;24.12;16.17;;;;;;;1.65;78.20;98369.30;2070087;86;27755;-61
2021/11/29 00:39:51;;;;;;;24.10;15.08;;;;;;;1.66;78.17;98372.78;2069949;86;30105;-62
2021/11/29 00:42:52;;;;;;;23.10;14.68;;;;;;;1.66;78.13;98385.98;2068769;86;32084;-62
2021/11/29 00:45:54;;;;;;;24.25;14.55;;;;;;;1.63;78.01;98386.98;2068500;86;33376;-62
2021/11/29 00:48:56;;;;;;;25.15;15.10;;;;;;;;;;2067441;86;30190;-62
2021/11/29 00:51:57;;;;;;;21.80;15.00;;;;;;;1.64;78.13;98390.46;2069305;86;27727;-64
2021/11/29 00:54:59;;;;;;;25.90;15.95;;;;;;;1.64;78.16;98392.66;2064582;86;28487;-64
2021/11/29 00:58:02;;;;;;;24.50;15.68;;;;;;;1.65;78.18;98398.33;2069712;86;30881;-64
2021/11/29 01:01:03;;;;;;;27.00;16.95;;;;;;;1.63;78.14;98397.53;2069854;86;33571;-61
2021/11/29 01:04:05;;;;;;;26.52;15.93;;;;;;;1.63;78.11;98394.02;2070858;85;29470;-60
2021/11/29 01:07:08;;;;;;;31.05;17.23;;;;;;;1.62;78.11;98381.75;2078260;85;27790;-60
2021/11/29 01:10:11;;;;;;;32.00;20.95;;;;;;;;;;2079349;85;30201;-60
2021/11/29 01:13:13;;;;;;;34.18;21.62;;;;;;;1.62;78.18;98374.70;2081151;84;31174;-60
2021/11/29 01:16:15;;;;;;;31.30;20.37;;;;;;;1.63;78.17;98371.59;2081276;85;33858;-61
2021/11/29 01:19:17;;;;;;;33.92;20.55;;;;;;;1.61;78.13;98374.31;2043776;85;30525;-64
2021/11/29 01:22:19;;;;;;;32.30;20.30;;;;;;;1.62;78.12;98364.59;2080823;85;27790;-63
2021/11/29 01:25:20;;;;;;;31.70;20.00;;;;;;;;;;2079517;85;29078;-63
2021/11/29 01:28:23;;;;;;;29.27;18.57;;;;;;;1.63;78.24;98368.95;2079548;85;31259;-66
2021/11/29 01:31:25;;;;;;;22.77;16.87;;;;;;;1.62;78.22;98369.87;2079214;85;32992;-63
2021/11/29 01:34:27;;;;;;;27.77;18.25;;;;;;;1.62;78.16;98373.83;2079495;85;29494;-63
2021/11/29 01:37:29;;;;;;;26.37;18.23;;;;;;;1.60;78.14;98369.95;2078321;84;27722;-68
2021/11/29 01:40:32;;;;;;;27.60;18.35;;;;;;;1.61;78.17;98372.12;2078420;85;29048;-65
2021/11/29 01:43:34;;;;;;;32.03;20.77;;;;;;;1.60;78.19;98371.27;2079827;85;30469;-63
2021/11/29 01:46:36;;;;;;;30.62;19.37;;;;;;;1.61;78.24;98364.20;2079895;85;33304;-64
2021/11/29 01:49:38;;;;;;;31.97;21.10;;;;;;;1.60;78.24;98366.44;2078736;84;30394;-63
2021/11/29 01:52:39;;;;;;;29.20;20.95;;;;;;;1.61;78.24;98359.80;2069162;84;27830;-64
2021/11/29 01:55:44;;;;;;;32.65;22.02;;;;;;;1.60;78.21;98365.13;2079608;85;28512;-64
2021/11/29 01:58:46;;;;;;;28.80;19.83;;;;;;;1.59;78.26;98359.45;2079306;85;31284;-63
2021/11/29 02:01:47;;;;;;;29.70;19.62;;;;;;;1.58;78.25;98357.73;2080101;85;33918;-63
2021/11/29 02:04:50;;;;;;;29.60;19.52;;;;;;;1.58;78.26;98358.61;2080072;84;30589;-62
2021/11/29 02:07:52;;;;;;;33.40;21.42;;;;;;;1.57;78.22;98361.33;2070083;86;27603;-62
2021/11/29 02:10:54;;;;;;;29.27;20.45;;;;;;;1.55;78.26;98358.73;2070184;86;29367;-63
2021/11/29 02:13:59;;;;;;;29.75;20.25;;;;;;;1.56;78.30;98354.33;2058937;86;32434;-62
2021/11/29 02:17:00;;;;;;;36.40;21.75;;;;;;;1.56;78.28;98354.33;2036543;87;33842;-63
2021/11/29 02:20:04;;;;;;;34.50;21.75;;;;;;;1.54;78.27;98347.78;2067654;86;29702;-63
2021/11/29 02:23:06;;;;;;;25.23;17.63;;;;;;;1.53;78.30;98352.66;2068969;86;27615;-63
2021/11/29 02:26:09;;;;;;;33.55;21.82;;;;;;;1.54;78.31;98358.81;2069055;86;29898;-63
2021/11/29 02:29:15;;;;;;;34.48;21.80;;;;;;;1.52;78.28;98366.78;2069142;86;31241;-63
2021/11/29 02:32:17;;;;;;;32.00;21.75;;;;;;;1.51;78.32;98369.90;2069890;86;33989;-63
2021/11/29 02:35:21;;;;;;;34.33;20.57;;;;;;;1.50;78.35;98377.86;2068992;86;29485;-63
2021/11/29 02:38:23;;;;;;;35.30;22.07;;;;;;;1.48;78.37;98380.58;2071506;84;27657;-63
2021/11/29 02:41:24;;;;;;;37.17;21.23;;;;;;;1.47;78.40;98384.14;2070067;86;29095;-63
2021/11/29 02:44:27;;;;;;;36.60;22.82;;;;;;;1.48;78.45;98383.70;2069980;86;31057;-64
2021/11/29 02:47:29;;;;;;;34.15;22.10;;;;;;;1.50;78.46;98393.69;2069760;86;34172;-64
2021/11/29 02:50:37;;;;;;;33.05;22.05;;;;;;;1.50;78.41;98399.84;2069663;86;29406;-71
2021/11/29 02:53:38;;;;;;;36.10;22.42;;;;;;;1.48;78.47;98400.37;2070309;86;27614;-63
2021/11/29 02:56:44;;;;;;;33.55;21.95;;;;;;;1.48;78.46;98402.17;2070342;86;29541;-63
2021/11/29 02:59:47;;;;;;;33.92;23.07;;;;;;;1.47;78.51;98409.20;2069086;86;31957;-63
2021/11/29 03:03:08;;;;;;;35.05;24.02;;;;;;;1.48;78.51;98411.40;2068420;84;34216;-68
2021/11/29 03:06:10;;;;;;;33.88;22.10;;;;;;;1.48;78.51;98413.56;2070099;85;30516;-64
2021/11/29 03:09:13;;;;;;;36.15;23.15;;;;;;;1.48;78.51;98410.08;2069384;86;27718;-63
2021/11/29 03:12:15;;;;;;;37.38;23.42;;;;;;;1.45;78.47;98417.65;2070454;86;28545;-71
2021/11/29 03:15:17;;;;;;;37.90;23.40;;;;;;;1.43;78.51;98411.58;2069636;86;31414;-63
2021/11/29 03:18:36;;;;;;;34.83;22.62;;;;;;;1.43;78.56;98406.30;2070617;86;33361;-68
2021/11/29 03:21:38;;;;;;;36.00;23.10;;;;;;;1.43;78.51;98400.18;2069621;86;30538;-73
2021/11/29 03:24:47;;;;;;;39.58;23.83;;;;;;;1.44;78.58;98399.26;2070314;85;27731;-70
2021/11/29 03:27:48;;;;;;;39.95;23.47;;;;;;;1.42;78.58;98401.09;2069605;86;29880;-72
2021/11/29 03:30:50;;;;;;;38.25;23.00;;;;;;;1.40;78.57;98401.18;2069893;86;31896;-72
2021/11/29 03:33:55;;;;;;;39.85;24.00;;;;;;;1.41;78.57;98403.34;2070339;86;34162;-76
2021/11/29 03:36:58;;;;;;;37.15;22.05;;;;;;;1.39;78.56;98403.42;2070024;86;29329;-74
2021/11/29 03:40:00;;;;;;;38.23;23.75;;;;;;;1.40;78.64;98402.94;2070389;86;27802;-67
2021/11/29 03:43:03;;;;;;;38.95;23.10;;;;;;;1.36;78.54;98401.75;2070129;86;29924;-67
2021/11/29 03:46:06;;;;;;;35.68;22.15;;;;;;;1.37;78.63;98403.94;2061244;86;31815;-74
2021/11/29 03:49:08;;;;;;;35.55;22.22;;;;;;;1.39;78.69;98402.09;2067996;84;32973;-64
2021/11/29 03:52:10;;;;;;;38.15;23.15;;;;;;;1.38;78.64;98408.30;2069796;86;29915;-62
2021/11/29 03:55:12;;;;;;;37.30;22.55;;;;;;;1.36;78.55;98401.75;2068990;86;27736;-62
2021/11/29 03:58:14;;;;;;;38.25;21.75;;;;;;;1.34;78.64;98408.87;2069059;86;29485;-61
2021/11/29 04:01:16;;;;;;;40.23;24.47;;;;;;;1.34;78.62;98408.87;2069863;86;32316;-63
2021/11/29 04:04:18;;;;;;;43.20;23.22;;;;;;;1.33;78.63;98401.03;2069806;86;34323;-61
2021/11/29 04:07:21;;;;;;;36.03;21.77;;;;;;;1.33;78.67;98395.28;2069965;84;30268;-61
2021/11/29 04:10:23;;;;;;;41.05;23.65;;;;;;;1.32;78.70;98396.23;2069902;86;27803;-63
2021/11/29 04:13:25;;;;;;;35.10;22.35;;;;;;;1.33;78.69;98399.23;2068596;86;29624;-62
2021/11/29 04:16:27;;;;;;;34.00;21.12;;;;;;;1.31;78.71;98398.91;2069834;86;31404;-61
2021/11/29 04:19:29;;;;;;;47.50;29.92;;;;;;;1.32;78.70;98395.36;2070351;86;33812;-63
2021/11/29 04:22:30;;;;;;;41.68;25.65;;;;;;;1.32;78.72;98396.67;2070775;86;29661;-63
2021/11/29 04:25:44;;;;;;;46.00;27.45;;;;;;;1.31;78.75;98397.16;2070215;86;27740;-61
2021/11/29 04:28:39;;;;;;;52.60;28.52;;;;;;;1.33;78.83;98395.28;2067200;86;28594;-61
2021/11/29 04:31:41;;;;;;;63.48;30.10;;;;;;;1.34;78.82;98404.06;2069689;86;31554;-62
2021/11/29 04:34:43;;;;;;;82.60;38.02;;;;;;;1.36;78.81;98404.86;2070077;86;34156;-62
2021/11/29 04:37:45;;;;;;;67.92;33.67;;;;;;;1.34;78.69;98405.39;2069925;86;30190;-62
2021/11/29 04:40:47;;;;;;;40.65;23.42;;;;;;;1.33;78.71;98401.03;2070144;86;27718;-62
2021/11/29 04:43:49;;;;;;;41.75;22.35;;;;;;;1.31;78.70;98398.91;2069213;86;29078;-61
2021/11/29 04:46:51;;;;;;;37.70;24.47;;;;;;;1.30;78.76;98402.03;2069010;86;32282;-62
2021/11/29 04:49:53;;;;;;;45.45;25.52;;;;;;;1.30;78.77;98401.16;2069847;86;33358;-62
2021/11/29 04:52:55;;;;;;;46.45;25.37;;;;;;;1.29;78.81;98410.86;2070248;86;29145;-62
2021/11/29 04:55:56;;;;;;;48.33;27.80;;;;;;;1.31;78.83;98408.15;2069517;85;27663;-61
2021/11/29 04:58:58;;;;;;;35.43;21.00;;;;;;;1.30;78.79;98406.44;2068718;86;30870;-61
2021/11/29 05:02:01;;;;;;;41.40;21.27;;;;;;;1.27;78.75;98404.80;2069782;86;30865;-61
2021/11/29 05:05:05;;;;;;;37.88;22.52;;;;;;;1.25;78.73;98399.16;2070176;85;34113;-67
2021/11/29 05:08:07;;;;;;;35.88;21.27;;;;;;;1.24;78.83;98403.59;2072258;84;28908;-69
2021/11/29 05:11:08;;;;;;;33.73;21.23;;;;;;;1.25;78.82;98396.53;2077920;85;27617;-70
2021/11/29 05:14:10;;;;;;;33.65;20.82;;;;;;;1.23;78.87;98404.52;2077478;85;29861;-70
2021/11/29 05:17:12;;;;;;;34.78;21.12;;;;;;;1.25;78.84;98404.44;2077482;85;31454;-69
2021/11/29 05:20:13;;;;;;;35.80;22.05;;;;;;;1.26;78.88;98406.16;2079705;85;33503;-69
2021/11/29 05:23:16;;;;;;;50.28;25.97;;;;;;;1.26;78.85;98410.98;2079661;85;29719;-69
2021/11/29 05:26:24;;;;;;;61.77;33.70;;;;;;;1.24;78.81;98416.78;2079761;85;27715;-70
2021/11/29 05:29:26;;;;;;;40.45;22.62;;;;;;;1.25;78.86;98421.14;2078033;84;29101;-61
2021/11/29 05:32:28;;;;;;;62.60;31.85;;;;;;;1.25;78.88;98417.63;2030469;85;31494;-67
2021/11/29 05:35:29;;;;;;;36.80;21.35;;;;;;;1.25;78.92;98420.27;2078822;85;32743;-70
2021/11/29 05:38:32;;;;;;;38.40;21.42;;;;;;;1.26;78.89;98426.81;2078449;85;29956;-65
2021/11/29 05:41:33;;;;;;;37.08;21.87;;;;;;;1.25;78.89;98429.50;2078014;85;27707;-68
2021/11/29 05:44:35;;;;;;;35.83;21.02;;;;;;;1.24;78.90;98430.45;2079501;85;29906;-67
2021/11/29 05:47:37;;;;;;;42.15;22.90;;;;;;;1.25;78.93;98434.77;2078735;85;31428;-68
2021/11/29 05:50:39;;;;;;;37.25;23.30;;;;;;;1.24;78.82;98435.73;2080053;85;33561;-69
2021/11/29 05:53:41;;;;;;;56.18;32.08;;;;;;;1.23;78.86;98441.92;2079541;85;29269;-68
2021/11/29 05:56:43;;;;;;;116.03;54.25;;;;;;;1.21;78.93;98443.28;2079650;85;27719;-67
2021/11/29 05:59:46;;;;;;;71.82;39.18;;;;;;;1.25;79.01;98450.59;2079077;85;28501;-66
2021/11/29 06:02:49;;;;;;;49.73;30.40;;;;;;;1.28;79.04;98453.11;2079602;85;31109;-70
2021/11/29 06:05:51;;;;;;;38.73;22.93;;;;;;;1.27;78.97;98454.03;2079590;85;33795;-62
2021/11/29 06:08:53;;;;;;;40.70;24.72;;;;;;;1.27;78.92;98461.50;2078918;84;29980;-65
2021/11/29 06:11:55;;;;;;;35.10;20.17;;;;;;;1.27;78.90;98470.73;2079325;85;28335;-70
2021/11/29 06:14:57;;;;;;;35.65;21.52;;;;;;;1.26;78.82;98472.98;2079562;85;30065;-70
2021/11/29 06:17:59;;;;;;;31.60;20.77;;;;;;;1.27;78.90;98476.02;2079784;85;31614;-69
2021/11/29 06:21:00;;;;;;;29.32;19.32;;;;;;;1.28;78.83;98483.45;2078922;85;33535;-70
2021/11/29 06:24:04;;;;;;;36.38;22.65;;;;;;;1.28;78.85;98486.97;2078341;85;30452;-69
2021/11/29 06:27:06;;;;;;;32.17;19.98;;;;;;;1.30;78.94;98500.95;2079937;85;27714;-70
2021/11/29 06:30:10;;;;;;;58.05;30.85;;;;;;;1.28;78.80;98505.88;2079768;85;29873;-69
2021/11/29 06:33:12;;;;;;;42.93;25.90;;;;;;;1.27;78.85;98508.98;2079477;85;31152;-59
2021/11/29 06:36:14;;;;;;;32.25;20.80;;;;;;;1.29;78.89;98518.14;2079858;85;33375;-69
2021/11/29 06:39:17;;;;;;;43.42;24.02;;;;;;;1.32;78.97;98515.39;2050016;85;29789;-69
2021/11/29 06:42:18;;;;;;;34.13;19.00;;;;;;;1.35;78.99;98522.70;2078865;85;28346;-60
2021/11/29 06:45:21;;;;;;;32.23;19.77;;;;;;;1.34;78.73;98523.63;2077462;85;30096;-61
2021/11/29 06:48:23;;;;;;;30.52;19.50;;;;;;;1.33;78.79;98520.59;2077527;85;31915;-67
2021/11/29 06:51:26;;;;;;;32.13;18.92;;;;;;;1.35;78.79;98523.18;2077801;85;32989;-60
2021/11/29 06:54:31;;;;;;;35.35;20.15;;;;;;;1.35;78.76;98521.39;2079648;85;29873;-63
2021/11/29 06:57:33;;;;;;;39.57;20.47;;;;;;;1.36;78.73;98523.11;2079664;85;27698;-65
2021/11/29 07:00:35;;;;;;;65.00;34.98;;;;;;;1.39;78.75;98525.22;2072134;85;28573;-63
2021/11/29 07:03:38;;;;;;;44.80;25.65;;;;;;;1.37;78.57;98525.30;2076861;85;31150;-60
2021/11/29 07:06:41;;;;;;;32.85;19.40;;;;;;;1.34;78.47;98533.34;2077893;85;33503;-61
2021/11/29 07:09:43;;;;;;;25.57;16.02;;;;;;;1.29;78.53;98544.08;2078454;85;29713;-63
2021/11/29 07:12:45;;;;;;;25.52;15.93;;;;;;;1.27;78.55;98543.72;2079688;85;27600;-61
2021/11/29 07:15:47;;;;;;;24.75;15.65;;;;;;;1.26;78.52;98547.28;2079384;85;30011;-62
2021/11/29 07:18:49;;;;;;;31.82;19.17;;;;;;;1.28;78.66;98548.08;2079270;85;32283;-67
2021/11/29 07:21:52;;;;;;;37.73;23.98;;;;;;;1.31;78.65;98552.80;2078611;85;33401;-60
2021/11/29 07:24:55;;;;;;;29.75;18.07;;;;;;;1.35;78.66;98557.00;2078601;85;30343;-61
2021/11/29 07:27:57;;;;;;;30.08;18.35;;;;;;;1.38;78.73;98558.68;2045816;87;27656;-63
2021/11/29 07:30:59;;;;;;;28.55;17.70;;;;;;;1.42;78.69;98552.81;2044627;87;29914;-69
2021/11/29 07:34:01;;;;;;;33.45;19.60;;;;;;;1.46;78.54;98564.48;2058262;84;31112;-61
2021/11/29 07:37:04;;;;;;;27.98;16.52;;;;;;;1.48;78.54;98573.69;2078604;85;33234;-70
2021/11/29 07:40:08;;;;;;;27.80;16.10;;;;;;;1.49;78.38;98573.61;2079431;85;30226;-67
2021/11/29 07:43:11;;;;;;;30.68;19.77;;;;;;;1.51;78.35;98576.17;2079090;85;27906;-68
2021/11/29 07:46:13;;;;;;;35.33;20.10;;;;;;;1.53;78.39;98574.33;2079235;85;28851;-65
2021/11/29 07:49:14;;;;;;;30.45;17.37;;;;;;;1.55;78.26;98580.41;2077174;85;31080;-67
2021/11/29 07:52:17;;;;;;;27.48;14.80;;;;;;;1.58;78.13;98580.73;2077152;85;34180;-70
2021/11/29 07:55:25;;;;;;;30.80;17.62;;;;;;;1.62;78.17;98595.53;2077482;85;30677;-70
2021/11/29 07:58:27;;;;;;;28.32;17.27;;;;;;;1.67;78.09;98594.42;2078921;85;27753;-65
2021/11/29 08:01:29;;;;;;;25.40;15.32;;;;;;;1.72;77.89;98593.38;2078236;85;29892;-64
2021/11/29 08:04:31;;;;;;;29.40;16.77;;;;;;;1.75;77.72;98595.42;2079183;85;32347;-68
2021/11/29 08:07:33;;;;;;;29.75;17.45;;;;;;;1.78;77.72;98597.94;2078670;85;34103;-66
2021/11/29 08:10:37;;;;;;;27.65;18.23;;;;;;;1.83;77.59;98599.06;2076720;85;29169;-61
2021/11/29 08:13:39;;;;;;;26.52;17.40;;;;;;;1.84;77.40;98604.75;2077997;85;28076;-61
2021/11/29 08:16:41;;;;;;;31.35;17.92;;;;;;;1.85;77.48;98610.91;2047882;85;28791;-63
2021/11/29 08:19:43;;;;;;;28.80;16.25;;;;;;;1.89;77.54;98615.14;2079090;85;32468;-69
2021/11/29 08:22:47;;;;;;;26.60;17.75;;;;;;;1.94;77.27;98614.47;2079048;84;34395;-63
2021/11/29 08:25:49;;;;;;;30.57;17.80;;;;;;;1.97;77.20;98617.86;2078798;85;30124;-66
2021/11/29 08:28:51;;;;;;;30.62;18.32;;;;;;;2.00;77.17;98626.55;2079775;85;27701;-60
2021/11/29 08:31:53;;;;;;;31.25;18.87;;;;;;;1.99;77.05;98630.15;2079195;85;29925;-66
2021/11/29 08:34:55;;;;;;;34.73;17.87;;;;;;;1.97;76.89;98638.11;2078606;85;32268;-69
2021/11/29 08:37:58;;;;;;;30.02;18.37;;;;;;;1.92;76.83;98642.72;2078156;85;33649;-64
2021/11/29 08:41:02;;;;;;;32.63;17.92;;;;;;;1.91;76.82;98641.88;2079368;85;30732;-68
2021/11/29 08:44:04;;;;;;;27.22;16.90;;;;;;;1.91;76.66;98641.88;2079624;85;27741;-69
2021/11/29 08:47:07;;;;;;;36.23;18.48;;;;;;;1.94;76.61;98644.84;2077542;85;29282;-67
2021/11/29 08:50:10;;;;;;;28.15;16.20;;;;;;;2.00;76.72;98644.59;2077491;85;31132;-62
2021/11/29 08:53:17;;;;;;;28.35;16.32;;;;;;;2.06;76.64;98653.59;2077478;85;33852;-69
2021/11/29 08:56:19;;;;;;;35.13;17.65;;;;;;;2.12;76.76;98649.84;2079017;85;29334;-68
2021/11/29 08:59:22;;;;;;;36.90;19.10;;;;;;;2.23;76.79;98663.45;2079492;85;27747;-67
2021/11/29 09:02:25;;;;;;;35.25;19.45;;;;;;;2.35;76.82;98658.55;2079273;85;29515;-71
2021/11/29 09:05:27;;;;;;;30.10;19.40;;;;;;;2.47;76.73;98662.47;2078948;85;32377;-65
2021/11/29 09:08:31;;;;;;;35.58;20.62;;;;;;;2.55;76.59;98661.69;2077368;85;34215;-66
2021/11/29 09:11:33;;;;;;;33.05;19.35;;;;;;;2.56;76.11;98658.12;2077448;85;29470;-69
2021/11/29 09:14:35;;;;;;;34.75;20.50;;;;;;;2.61;76.12;98660.55;2077866;85;28115;-64
2021/11/29 09:17:57;;;;;;;33.80;19.35;;;;;;;2.70;76.13;98665.42;2077185;85;29569;-68
2021/11/29 09:21:00;;;;;;;35.15;21.27;;;;;;;2.69;75.64;98669.00;2154964;82;31116;-63
2021/11/29 09:24:03;;;;;;;38.55;20.37;;;;;;;2.70;75.69;98666.75;2229983;79;34320;-61
2021/11/29 09:27:05;;;;;;;36.20;21.95;;;;;;;2.78;75.76;98673.02;2229032;79;30186;-62
2021/11/29 09:30:10;;;;;;;39.70;24.95;;;;;;;2.86;75.74;98662.50;2201483;79;27729;-61
2021/11/29 09:33:13;;;;;;;35.60;21.07;;;;;;;2.91;75.56;98664.09;2224562;79;28709;-62
2021/11/29 09:36:15;;;;;;;41.08;22.15;;;;;;;2.99;75.56;98667.23;2190498;81;31941;-64
2021/11/29 09:39:18;;;;;;;36.90;22.30;;;;;;;3.04;75.43;98666.13;2190756;81;34161;-62
2021/11/29 09:42:29;;;;;;;34.27;20.27;;;;;;;3.16;75.33;98659.87;2190849;81;30014;-66
2021/11/29 09:45:32;;;;;;;43.10;21.90;;;;;;;3.25;75.28;98659.43;2191383;81;27672;-60
2021/11/29 09:48:34;;;;;;;51.23;26.25;;;;;;;3.37;75.27;98663.78;2190848;81;29540;-60
2021/11/29 09:51:37;;;;;;;57.90;28.25;;;;;;;3.48;75.36;98662.33;2191180;81;32345;-64
2021/11/29 09:54:47;;;;;;;43.73;23.90;;;;;;;3.57;74.92;98665.00;2220089;79;33138;-69
2021/11/29 09:57:49;;;;;;;42.78;23.87;;;;;;;3.61;74.67;98666.58;2148602;82;29755;-60
2021/11/29 10:00:55;;;;;;;47.95;27.07;;;;;;;3.62;74.63;98663.00;2148934;82;27761;-61
2021/11/29 10:03:57;;;;;;;52.60;27.17;;;;;;;3.63;74.55;98665.20;2149380;82;28655;-61
2021/11/29 10:07:03;;;;;;;34.92;22.50;;;;;;;3.59;74.26;98667.12;2148963;82;32314;-60
2021/11/29 10:10:30;;;;;;;38.10;22.82;;;;;;;3.54;74.06;98665.63;2118412;82;33768;-61
2021/11/29 10:13:54;;;;;;;37.53;22.25;;;;;;;3.46;74.04;98664.66;2106939;83;30613;-60
2021/11/29 10:17:00;;;;;;;41.98;23.55;;;;;;;3.39;73.93;98655.31;2112229;83;27823;-61
2021/11/29 10:20:04;;;;;;;41.23;24.18;;;;;;;3.40;74.05;98651.25;2102832;83;28665;-62
2021/11/29 10:23:08;;;;;;;39.25;24.32;;;;;;;3.47;74.16;98659.77;2119745;83;31161;-61
2021/11/29 10:26:32;;;;;;;39.40;22.55;;;;;;;3.54;74.07;98649.29;2064448;84;33113;-61
2021/11/29 10:29:34;;;;;;;37.95;24.32;;;;;;;3.62;73.89;98656.38;2089519;85;29341;-60
2021/11/29 10:32:43;;;;;;;36.55;20.95;;;;;;;3.71;74.01;98663.52;2063232;86;28240;-62
2021/11/29 10:35:46;;;;;;;32.55;19.95;;;;;;;3.77;73.72;98657.45;2133338;82;28776;-64
2021/11/29 10:38:59;;;;;;;39.80;21.85;;;;;;;3.87;73.63;98656.54;2216388;80;32246;-64
2021/11/29 10:42:00;;;;;;;35.68;21.25;;;;;;;3.93;73.56;98654.89;2214261;79;33184;-61
2021/11/29 10:45:03;;;;;;;38.23;22.00;;;;;;;4.00;73.36;98652.80;2214972;80;29685;-63
2021/11/29 10:48:25;;;;;;;35.20;22.13;;;;;;;4.06;73.40;98652.95;2213571;80;27708;-64
2021/11/29 10:51:27;;;;;;;41.95;24.85;;;;;;;4.13;73.28;98657.52;2215757;80;29505;-63
2021/11/29 10:54:33;;;;;;;37.67;20.82;;;;;;;4.17;73.04;98655.08;2216582;80;31100;-61
2021/11/29 10:57:36;;;;;;;;;;;;;;;4.19;72.91;98658.06;2215680;80;33813;-61
2021/11/29 11:00:38;;;;;;;40.30;21.45;;;;;;;4.19;72.75;98659.84;2144560;83;29702;-61
2021/11/29 11:03:54;;;;;;;39.70;22.60;;;;;;;4.18;72.84;98664.30;2181755;81;28260;-67
2021/11/29 11:07:03;;;;;;;34.45;20.50;;;;;;;4.10;72.71;98667.33;2159098;81;28880;-61
2021/11/29 11:10:14;;;;;;;31.20;19.10;;;;;;;3.99;72.26;98666.98;2216698;80;31866;-61
2021/11/29 11:13:16;;;;;;;24.65;15.88;;;;;;;3.88;72.29;98672.83;2216647;80;34289;-68
2021/11/29 11:16:38;;;;;;;25.82;15.80;;;;;;;3.77;72.14;98681.73;2210107;80;30668;-63
2021/11/29 11:19:49;;;;;;;24.15;15.10;;;;;;;3.63;72.28;98680.61;2181820;81;27700;-60
2021/11/29 11:22:52;;;;;;;25.65;14.58;;;;;;;3.53;72.41;98682.44;2222047;79;27903;-65
2021/11/29 11:25:55;;;;;;;26.65;16.27;;;;;;;3.46;72.49;98677.45;2222355;80;31125;-66
2021/11/29 11:28:57;;;;;;;24.82;15.18;;;;;;;3.43;72.77;98680.23;2221788;79;33995;-64
2021/11/29 11:32:12;;;;;;;28.35;15.93;;;;;;;3.38;72.52;98676.09;2191494;81;29335;-70
2021/11/29 11:35:18;;;;;;;25.97;16.48;;;;;;;3.35;72.66;98671.77;2206454;79;28158;-71
2021/11/29 11:38:25;;;;;;;29.55;17.15;;;;;;;3.37;72.81;98665.95;2209468;79;28704;-71
2021/11/29 11:41:26;;;;;;;28.90;17.35;;;;;;;3.37;72.77;98669.92;2230173;79;31031;-69
2021/11/29 11:44:29;;;;;;;32.35;19.15;;;;;;;3.46;73.03;98673.92;2229206;79;34187;-63
2021/11/29 11:47:33;;;;;;;29.55;18.37;;;;;;;3.50;72.97;98672.86;2180650;81;30281;-64
2021/11/29 11:50:40;;;;;;;31.68;17.60;;;;;;;3.55;72.95;98669.98;2222411;80;27700;-63
2021/11/29 11:53:41;;;;;;;32.20;19.35;;;;;;;3.56;72.81;98675.68;2173494;81;29462;-69
2021/11/29 11:56:44;;;;;;;30.55;19.82;;;;;;;3.59;72.86;98676.86;2199583;80;31098;-70
2021/11/29 12:00:06;;;;;;;32.30;20.12;;;;;;;3.59;72.80;98684.81;2150541;81;33394;-69
2021/11/29 12:03:28;;;;;;;32.70;19.50;;;;;;;3.59;72.78;98692.27;2192951;79;30562;-59
2021/11/29 12:06:35;;;;;;;36.08;21.80;;;;;;;3.56;72.72;98690.24;2222063;79;27797;-61
2021/11/29 12:09:42;;;;;;;42.08;23.73;;;;;;;3.47;72.66;98681.81;2208551;80;28730;-61
2021/11/29 12:12:56;;;;;;;37.48;21.73;;;;;;;3.41;72.72;98692.67;2181058;81;32247;-60
2021/11/29 12:15:58;;;;;;;34.48;21.52;;;;;;;3.32;72.57;98689.11;2160843;81;34207;-64
2021/11/29 12:19:01;;;;;;;41.55;24.20;;;;;;;3.27;72.79;98687.16;2159111;81;29382;-60
2021/11/29 12:22:21;;;;;;;51.80;26.60;;;;;;;3.28;72.93;98687.56;2144974;82;27610;-69
2021/11/29 12:25:24;;;;;;;42.98;27.95;;;;;;;3.30;72.97;98693.65;2090249;82;45403;-69
2021/11/29 12:28:42;;;;;;;40.15;24.55;;;;;;;3.46;73.14;98685.39;2133258;83;31915;-70
2021/11/29 12:31:44;;;;;;;59.05;38.28;;;;;;;3.56;73.09;98696.38;2146737;82;32966;-70
2021/11/29 12:34:58;;;;;;;64.07;38.80;;;;;;;3.61;72.98;98701.48;2159822;82;30524;-70
2021/11/29 12:38:07;;;;;;;38.75;25.37;;;;;;;3.60;72.96;98695.80;2151067;82;27546;-71
2021/11/29 12:41:10;;;;;;;39.60;24.18;;;;;;;3.56;72.90;98700.83;2158165;81;29111;-70
2021/11/29 12:44:13;;;;;;;40.45;23.18;;;;;;;3.52;72.80;98707.19;2167677;82;32260;-65
2021/11/29 12:47:25;;;;;;;37.33;22.42;;;;;;;3.43;72.81;98702.73;2139741;82;33799;-71
2021/11/29 12:50:40;;;;;;;41.68;24.55;;;;;;;3.38;72.85;98706.05;2138504;82;29402;-68
2021/11/29 12:53:42;;;;;;;57.50;35.33;;;;;;;3.32;72.92;98700.58;2153278;82;28099;-69
2021/11/29 12:56:44;;;;;;;66.42;39.60;;;;;;;3.26;72.99;98705.30;2133179;83;29601;-71
2021/11/29 12:59:55;;;;;;;46.08;26.35;;;;;;;3.21;72.89;98706.83;2132622;83;30833;-69
2021/11/29 13:03:02;;;;;;;92.05;58.38;;;;;;;3.14;73.16;98715.97;2166520;82;34402;-70
2021/11/29 13:06:06;;;;;;;39.53;27.42;;;;;;;3.13;73.26;98712.92;2170209;81;29310;-70
2021/11/29 13:09:15;;;;;;;41.30;25.68;;;;;;;3.12;73.29;98725.75;2170552;82;27648;-70
2021/11/29 13:12:19;;;;;;;40.25;25.72;;;;;;;3.07;73.32;98719.80;2164800;82;29506;-70
2021/11/29 13:15:27;;;;;;;43.95;30.05;;;;;;;3.08;73.43;98724.16;2160008;82;31824;-71
2021/11/29 13:18:58;;;;;;;58.50;34.23;;;;;;;3.11;73.47;98731.52;2146156;82;33069;-70
2021/11/29 13:22:07;;;;;;;55.88;31.30;;;;;;;3.10;73.45;98728.92;2148309;80;30520;-72
2021/11/29 13:25:10;;;;;;;40.03;24.85;;;;;;;3.07;73.41;98735.67;2187301;81;27722;-69
2021/11/29 13:28:13;;;;;;;38.50;23.18;;;;;;;3.04;73.48;98736.67;2187394;81;29098;-69
2021/11/29 13:31:25;;;;;;;40.50;25.65;;;;;;;2.99;73.35;98728.08;2151158;81;31068;-64
2021/11/29 13:34:36;;;;;;;39.27;22.32;;;;;;;2.99;73.54;98726.75;2178775;81;34348;-67
2021/11/29 13:41:27;;;;;;;32.78;21.70;;;;;;;3.02;73.57;98727.95;2080299;85;28119;-70
2021/11/29 13:44:30;;;;;;;33.65;20.88;;;;;;;3.03;73.49;98730.98;2091604;85;28788;-71
2021/11/29 13:47:37;;;;;;;34.45;21.17;;;;;;;3.03;73.66;98725.70;2142014;83;31713;-67
2021/11/29 13:50:49;;;;;;;30.05;19.37;;;;;;;3.04;73.62;98733.58;2141662;83;32973;-70
2021/11/29 13:53:52;;;;;;;29.18;19.80;;;;;;;3.02;73.61;98743.37;2142429;83;29731;-70
2021/11/29 13:56:54;;;;;;;38.13;24.32;;;;;;;3.00;73.58;98739.05;2112944;83;27856;-64
2021/11/29 14:00:13;;;;;;;35.50;23.20;;;;;;;2.98;73.62;98745.75;2106140;84;29575;-69
2021/11/29 14:03:27;;;;;;;60.90;30.27;;;;;;;2.92;73.61;98740.71;2105437;84;32246;-68
2021/11/29 14:06:30;;;;;;;63.30;29.05;;;;;;;2.86;73.55;98746.28;2152086;82;33019;-64
2021/11/29 14:09:38;;;;;;;37.90;23.27;;;;;;;2.81;73.75;98754.42;2215158;80;29318;-69
2021/11/29 14:12:48;;;;;;;37.90;23.42;;;;;;;2.78;73.77;98766.45;2217637;80;27697;-70
2021/11/29 14:16:03;;;;;;;55.10;28.20;;;;;;;2.71;73.87;98770.27;2179346;80;28903;-73
2021/11/29 14:19:09;;;;;;;38.57;24.30;;;;;;;2.68;73.94;98768.63;2174272;80;30916;-72
2021/11/29 14:22:11;;;;;;;39.10;23.62;;;;;;;2.63;74.01;98771.91;2174735;80;32973;-73